Time,TemperatureF,DewpointF,PressureIn,WindDirection,WindDirectionDegrees,WindSpeedMPH,WindSpeedGustMPH,Humidity,HourlyPrecipIn,Conditions,Clouds,dailyrainin,SoftwareType,DateUTC
2013-05-11 00:09:00,75.7,72.0,30.05,SE,133,1.0,-999.0,87,-99.99,,,0.00,weatherlink.com 1.10,2013-05-11 04:09:00,
2013-05-11 00:24:00,75.4,72.0,30.06,SE,133,0.0,-999.0,88,-99.99,,,0.00,weatherlink.com 1.10,2013-05-11 04:24:00,
2013-05-11 00:39:00,75.1,71.0,30.05,SE,133,0.0,-999.0,88,-99.99,,,0.00,weatherlink.com 1.10,2013-05-11 04:39:00,
2013-05-11 00:54:00,74.8,70.0,30.05,SSE,158,1.0,-999.0,85,-99.99,,,0.00,weatherlink.com 1.10,2013-05-11 04:54:00,
2013-05-11 01:09:00,74.6,70.0,30.05,South,169,0.0,-999.0,84,-99.99,,,0.00,weatherlink.com 1.10,2013-05-11 05:09:00,
2013-05-11 01:24:00,74.3,70.0,30.05,South,169,2.0,-999.0,85,-99.99,,,0.00,weatherlink.com 1.10,2013-05-11 05:24:00,
2013-05-11 01:39:00,73.7,69.0,30.04,South,175,1.0,-999.0,85,-99.99,,,0.00,weatherlink.com 1.10,2013-05-11 05:39:00,
2013-05-11 01:54:00,73.1,69.0,30.03,South,182,1.0,-999.0,87,-99.99,,,0.00,weatherlink.com 1.10,2013-05-11 05:54:00,
2013-05-11 02:09:00,72.8,69.0,30.04,South,189,5.0,-999.0,88,-99.99,,,0.00,weatherlink.com 1.10,2013-05-11 06:09:00,
2013-05-11 02:24:00,72.8,69.0,30.03,SSW,200,4.0,-999.0,88,-99.99,,,0.00,weatherlink.com 1.10,2013-05-11 06:24:00,
2013-05-11 02:39:00,72.7,69.0,30.03,SW,215,4.0,-999.0,88,-99.99,,,0.00,weatherlink.com 1.10,2013-05-11 06:39:00,
2013-05-11 02:54:00,72.7,69.0,30.03,SW,218,4.0,-999.0,88,-99.99,,,0.00,weatherlink.com 1.10,2013-05-11 06:54:00,
2013-05-11 03:09:00,72.7,69.0,30.02,SW,217,2.0,-999.0,88,-99.99,,,0.00,weatherlink.com 1.10,2013-05-11 07:09:00,
2013-05-11 03:24:00,72.7,69.0,30.03,SW,230,5.0,-999.0,88,-99.99,,,0.00,weatherlink.com 1.10,2013-05-11 07:24:00,
2013-05-11 03:39:00,72.4,69.0,30.02,West,265,0.0,-999.0,89,-99.99,,,0.00,weatherlink.com 1.10,2013-05-11 07:39:00,
2013-05-11 03:56:00,72.3,69.0,30.02,WSW,252,2.0,-999.0,90,-99.99,,,0.00,weatherlink.com 1.10,2013-05-11 07:56:00,
2013-05-11 04:09:00,72.4,69.0,30.01,SW,232,2.0,-999.0,90,-99.99,,,0.00,weatherlink.com 1.10,2013-05-11 08:09:00,
2013-05-11 04:24:00,72.3,69.0,30.00,SW,228,1.0,-999.0,90,-99.99,,,0.00,weatherlink.com 1.10,2013-05-11 08:24:00,
2013-05-11 04:39:00,71.9,69.0,30.00,SW,227,3.0,-999.0,90,-99.99,,,0.00,weatherlink.com 1.10,2013-05-11 08:39:00,
2013-05-11 04:54:00,71.7,69.0,30.00,SW,225,2.0,-999.0,91,-99.99,,,0.00,weatherlink.com 1.10,2013-05-11 08:54:00,
2013-05-11 05:09:00,71.6,69.0,30.00,SW,225,0.0,-999.0,91,-99.99,,,0.00,weatherlink.com 1.10,2013-05-11 09:09:00,
2013-05-11 05:24:00,71.5,69.0,30.00,SW,226,4.0,-999.0,91,-99.99,,,0.00,weatherlink.com 1.10,2013-05-11 09:24:00,
2013-05-11 05:39:00,71.3,69.0,30.00,SW,226,0.0,-999.0,91,-99.99,,,0.00,weatherlink.com 1.10,2013-05-11 09:39:00,
2013-05-11 05:54:00,71.3,69.0,30.01,SW,226,1.0,-999.0,92,-99.99,,,0.00,weatherlink.com 1.10,2013-05-11 09:54:00,
2013-05-11 06:09:00,71.5,69.0,30.02,SW,226,4.0,-999.0,92,-99.99,,,0.00,weatherlink.com 1.10,2013-05-11 10:09:00,
2013-05-11 06:24:00,71.6,69.0,30.02,SW,223,5.0,-999.0,91,-99.99,,,0.00,weatherlink.com 1.10,2013-05-11 10:24:00,
2013-05-11 06:39:00,71.7,69.0,30.03,SW,223,0.0,-999.0,91,-99.99,,,0.00,weatherlink.com 1.10,2013-05-11 10:39:00,
2013-05-11 06:54:00,71.6,69.0,30.03,SW,223,0.0,-999.0,92,-99.99,,,0.00,weatherlink.com 1.10,2013-05-11 10:54:00,
2013-05-11 07:09:00,71.5,69.0,30.03,SW,223,0.0,-999.0,92,-99.99,,,0.00,weatherlink.com 1.10,2013-05-11 11:09:00,
2013-05-11 07:24:00,71.5,69.0,30.03,SW,223,2.0,-999.0,92,-99.99,,,0.00,weatherlink.com 1.10,2013-05-11 11:24:00,
2013-05-11 07:39:00,71.6,69.0,30.03,SW,223,2.0,-999.0,92,-99.99,,,0.00,weatherlink.com 1.10,2013-05-11 11:39:00,
2013-05-11 07:54:00,71.8,69.0,30.03,SW,214,0.0,-999.0,91,-99.99,,,0.00,weatherlink.com 1.10,2013-05-11 11:54:00,
2013-05-11 08:09:00,72.6,69.0,30.04,SSW,209,4.0,-999.0,89,-99.99,,,0.00,weatherlink.com 1.10,2013-05-11 12:09:00,
2013-05-11 08:24:00,74.1,70.0,30.05,SSW,213,4.0,-999.0,88,-99.99,,,0.00,weatherlink.com 1.10,2013-05-11 12:24:00,
2013-05-11 08:39:00,74.6,71.0,30.05,SSW,210,5.0,-999.0,87,-99.99,,,0.00,weatherlink.com 1.10,2013-05-11 12:39:00,
2013-05-11 08:54:00,75.4,71.0,30.04,South,178,5.0,-999.0,85,-99.99,,,0.00,weatherlink.com 1.10,2013-05-11 12:54:00,
2013-05-11 09:09:00,76.1,71.0,30.04,SSW,194,8.0,-999.0,85,-99.99,,,0.00,weatherlink.com 1.10,2013-05-11 13:09:00,
2013-05-11 09:24:00,77.4,72.0,30.04,SSW,209,2.0,-999.0,83,-99.99,,,0.00,weatherlink.com 1.10,2013-05-11 13:24:00,
2013-05-11 09:39:00,78.4,72.0,30.04,SSW,202,2.0,-999.0,80,-99.99,,,0.00,weatherlink.com 1.10,2013-05-11 13:39:00,
2013-05-11 09:55:00,79.9,71.0,30.04,SSW,213,9.0,-999.0,75,-99.99,,,0.00,weatherlink.com 1.10,2013-05-11 13:55:00,
2013-05-11 10:09:00,80.9,72.0,30.05,SW,218,4.0,-999.0,74,-99.99,,,0.00,weatherlink.com 1.10,2013-05-11 14:09:00,
2013-05-11 10:24:00,82.1,72.0,30.05,SW,219,5.0,-999.0,71,-99.99,,,0.00,weatherlink.com 1.10,2013-05-11 14:24:00,
2013-05-11 10:39:00,82.9,72.0,30.05,SSW,202,9.0,-999.0,69,-99.99,,,0.00,weatherlink.com 1.10,2013-05-11 14:39:00,
2013-05-11 10:54:00,83.5,71.0,30.05,West,261,7.0,-999.0,67,-99.99,,,0.00,weatherlink.com 1.10,2013-05-11 14:54:00,
2013-05-11 11:09:00,83.8,71.0,30.04,SSW,192,4.0,-999.0,66,-99.99,,,0.00,weatherlink.com 1.10,2013-05-11 15:09:00,
2013-05-11 11:39:00,85.4,71.0,30.02,WSW,244,1.0,-999.0,63,-99.99,,,0.00,weatherlink.com 1.10,2013-05-11 15:39:00,
2013-05-11 11:54:00,85.7,71.0,30.02,South,184,0.0,-999.0,62,-99.99,,,0.00,weatherlink.com 1.10,2013-05-11 15:54:00,
2013-05-11 12:09:00,85.3,71.0,30.02,WSW,239,7.0,-999.0,62,-99.99,,,0.00,weatherlink.com 1.10,2013-05-11 16:09:00,
2013-05-11 12:24:00,86.5,70.0,30.02,SW,226,6.0,-999.0,59,-99.99,,,0.00,weatherlink.com 1.10,2013-05-11 16:24:00,
2013-05-11 12:39:00,85.9,71.0,30.01,West,273,2.0,-999.0,61,-99.99,,,0.00,weatherlink.com 1.10,2013-05-11 16:39:00,
2013-05-11 12:54:00,86.5,69.0,30.02,SW,224,4.0,-999.0,57,-99.99,,,0.00,weatherlink.com 1.10,2013-05-11 16:54:00,
2013-05-11 13:24:00,87.7,70.0,30.00,WSW,238,3.0,-999.0,56,-99.99,,,0.00,weatherlink.com 1.10,2013-05-11 17:24:00,
2013-05-11 13:39:00,89.2,70.0,30.00,WSW,257,4.0,-999.0,53,-99.99,,,0.00,weatherlink.com 1.10,2013-05-11 17:39:00,
2013-05-11 13:54:00,89.5,70.0,30.00,West,274,0.0,-999.0,53,-99.99,,,0.00,weatherlink.com 1.10,2013-05-11 17:54:00,
2013-05-11 14:09:00,90.8,70.0,29.99,NW,305,4.0,-999.0,51,-99.99,,,0.00,weatherlink.com 1.10,2013-05-11 18:09:00,
2013-05-11 14:24:00,92.1,70.0,29.98,WSW,244,3.0,-999.0,49,-99.99,,,0.00,weatherlink.com 1.10,2013-05-11 18:24:00,
2013-05-11 14:39:00,91.6,70.0,29.98,WSW,254,0.0,-999.0,50,-99.99,,,0.00,weatherlink.com 1.10,2013-05-11 18:39:00,
2013-05-11 14:54:00,91.1,70.0,29.97,NNW,334,5.0,-999.0,50,-99.99,,,0.00,weatherlink.com 1.10,2013-05-11 18:54:00,
2013-05-11 15:09:00,90.1,69.0,29.97,WSW,238,6.0,-999.0,50,-99.99,,,0.00,weatherlink.com 1.10,2013-05-11 19:09:00,
2013-05-11 15:24:00,89.8,70.0,29.97,WSW,242,2.0,-999.0,52,-99.99,,,0.00,weatherlink.com 1.10,2013-05-11 19:24:00,
2013-05-11 15:39:00,87.6,71.0,29.97,West,275,6.0,-999.0,59,-99.99,,,0.00,weatherlink.com 1.10,2013-05-11 19:39:00,
2013-05-11 15:54:00,84.3,71.0,29.98,West,273,5.0,-999.0,65,-99.99,,,0.00,weatherlink.com 1.10,2013-05-11 19:54:00,
2013-05-11 16:09:00,81.7,73.0,29.98,South,186,12.0,-999.0,74,-99.99,,,0.00,weatherlink.com 1.10,2013-05-11 20:09:00,
2013-05-11 16:24:00,81.0,72.0,29.98,SW,229,2.0,-999.0,73,-99.99,,,0.00,weatherlink.com 1.10,2013-05-11 20:24:00,
2013-05-11 16:39:00,81.9,72.0,29.96,SW,236,0.0,-999.0,72,-99.99,,,0.00,weatherlink.com 1.10,2013-05-11 20:39:00,
2013-05-11 16:54:00,85.0,72.0,29.96,WSW,254,4.0,-999.0,65,-99.99,,,0.00,weatherlink.com 1.10,2013-05-11 20:54:00,
2013-05-11 17:09:00,85.3,71.0,29.96,WSW,242,11.0,-999.0,63,-99.99,,,0.00,weatherlink.com 1.10,2013-05-11 21:09:00,
2013-05-11 17:24:00,85.3,71.0,29.97,West,272,2.0,-999.0,63,-99.99,,,0.00,weatherlink.com 1.10,2013-05-11 21:24:00,
2013-05-11 17:39:00,84.4,70.0,29.97,NW,317,5.0,-999.0,63,-99.99,,,0.00,weatherlink.com 1.10,2013-05-11 21:39:00,
2013-05-11 17:54:00,83.9,71.0,29.98,West,278,2.0,-999.0,65,-99.99,,,0.00,weatherlink.com 1.10,2013-05-11 21:54:00,
2013-05-11 18:09:00,83.5,70.0,29.98,WSW,248,4.0,-999.0,64,-99.99,,,0.00,weatherlink.com 1.10,2013-05-11 22:09:00,
2013-05-11 18:24:00,83.5,71.0,29.98,WSW,248,2.0,-999.0,65,-99.99,,,0.00,weatherlink.com 1.10,2013-05-11 22:24:00,
2013-05-11 18:39:00,83.5,71.0,29.98,West,271,8.0,-999.0,66,-99.99,,,0.00,weatherlink.com 1.10,2013-05-11 22:39:00,
2013-05-11 18:54:00,83.5,71.0,29.97,West,271,0.0,-999.0,67,-99.99,,,0.00,weatherlink.com 1.10,2013-05-11 22:54:00,
2013-05-11 19:09:00,83.6,71.0,29.98,West,271,1.0,-999.0,66,-99.99,,,0.00,weatherlink.com 1.10,2013-05-11 23:09:00,
2013-05-11 19:24:00,83.3,71.0,29.99,WSW,238,2.0,-999.0,67,-99.99,,,0.00,weatherlink.com 1.10,2013-05-11 23:24:00,
2013-05-11 19:54:00,82.5,70.0,30.00,North,350,4.0,-999.0,66,-99.99,,,0.00,weatherlink.com 1.10,2013-05-11 23:54:00,
2013-05-11 20:09:00,81.1,70.0,30.00,NNE,22,15.0,-999.0,68,-99.99,,,0.00,weatherlink.com 1.10,2013-05-12 00:09:00,
2013-05-11 20:24:00,79.4,65.0,30.01,NE,37,1.0,-999.0,62,-99.99,,,0.00,weatherlink.com 1.10,2013-05-12 00:24:00,
2013-05-11 20:39:00,78.4,66.0,30.01,NW,322,2.0,-999.0,65,-99.99,,,0.00,weatherlink.com 1.10,2013-05-12 00:39:00,
2013-05-11 20:54:00,77.1,66.0,30.01,NW,319,6.0,-999.0,68,-99.99,,,0.00,weatherlink.com 1.10,2013-05-12 00:54:00,
2013-05-11 21:09:00,76.5,66.0,30.01,NW,319,0.0,-999.0,70,-99.99,,,0.00,weatherlink.com 1.10,2013-05-12 01:09:00,
2013-05-11 21:24:00,76.0,66.0,30.00,NW,319,0.0,-999.0,71,-99.99,,,0.00,weatherlink.com 1.10,2013-05-12 01:24:00,
2013-05-11 21:39:00,75.7,66.0,30.01,NW,319,0.0,-999.0,72,-99.99,,,0.00,weatherlink.com 1.10,2013-05-12 01:39:00,
2013-05-11 21:54:00,75.7,66.0,30.02,NW,319,0.0,-999.0,72,-99.99,,,0.00,weatherlink.com 1.10,2013-05-12 01:54:00,
2013-05-11 22:09:00,75.8,66.0,30.01,NW,315,0.0,-999.0,72,-99.99,,,0.00,weatherlink.com 1.10,2013-05-12 02:09:00,
2013-05-11 22:24:00,75.8,67.0,30.02,NW,305,0.0,-999.0,73,-99.99,,,0.00,weatherlink.com 1.10,2013-05-12 02:24:00,
2013-05-11 22:39:00,75.8,67.0,30.01,West,259,3.0,-999.0,73,-99.99,,,0.00,weatherlink.com 1.10,2013-05-12 02:39:00,
2013-05-11 22:54:00,75.5,67.0,30.02,West,259,5.0,-999.0,74,-99.99,,,0.00,weatherlink.com 1.10,2013-05-12 02:54:00,
2013-05-11 23:09:00,75.5,67.0,30.02,West,259,1.0,-999.0,74,-99.99,,,0.00,weatherlink.com 1.10,2013-05-12 03:09:00,
2013-05-11 23:24:00,75.3,67.0,30.01,West,259,4.0,-999.0,75,-99.99,,,0.00,weatherlink.com 1.10,2013-05-12 03:24:00,
2013-05-11 23:39:00,74.8,68.0,30.01,WSW,251,2.0,-999.0,78,-99.99,,,0.00,weatherlink.com 1.10,2013-05-12 03:39:00,
2013-05-11 23:54:00,74.4,67.0,30.02,WSW,242,1.0,-999.0,78,-99.99,,,0.00,weatherlink.com 1.10,2013-05-12 03:54:00,